createdAt,value
2022-09-30T00:01:51.798Z,8.23
2022-09-30T00:04:21.763Z,8.16
2022-09-30T00:06:49.217Z,8.14
2022-09-30T00:09:16.663Z,8.09
2022-09-30T00:11:43.759Z,8.24
2022-09-30T00:14:18.804Z,8.27
2022-09-30T00:16:45.579Z,8.19
2022-09-30T00:19:12.296Z,8.06
2022-09-30T00:21:38.788Z,8.02
2022-09-30T00:24:07.294Z,8.02
2022-09-30T00:26:34.823Z,7.94
2022-09-30T00:29:02.206Z,7.92
2022-09-30T00:31:32.118Z,7.95
2022-09-30T00:34:08.147Z,8.00
2022-09-30T00:36:39.242Z,8.13
2022-09-30T00:39:08.133Z,8.07
2022-09-30T00:41:35.227Z,7.96
2022-09-30T00:44:01.700Z,7.90
2022-09-30T00:46:44.290Z,8.03
2022-09-30T00:49:15.726Z,8.09
2022-09-30T00:51:47.525Z,7.90
2022-09-30T00:54:19.202Z,7.83
2022-09-30T00:56:52.654Z,7.77
2022-09-30T00:59:25.169Z,7.77
2022-09-30T01:01:52.106Z,7.77
2022-09-30T01:04:24.616Z,7.69
2022-09-30T01:06:51.445Z,7.67
2022-09-30T01:09:19.644Z,7.62
2022-09-30T01:11:47.309Z,7.66
2022-09-30T01:14:23.387Z,7.56
2022-09-30T01:17:21.227Z,7.53
2022-09-30T01:20:25.483Z,7.54
2022-09-30T01:23:14.915Z,7.54
2022-09-30T01:26:04.286Z,7.59
2022-09-30T01:28:52.428Z,7.65
2022-09-30T01:31:36.198Z,7.62
2022-09-30T01:34:13.726Z,7.55
2022-09-30T01:36:51.031Z,7.48
2022-09-30T01:39:26.513Z,7.46
2022-09-30T01:42:18.571Z,7.48
2022-09-30T01:44:53.450Z,7.45
2022-09-30T01:47:25.431Z,7.43
2022-09-30T01:50:17.878Z,7.40
2022-09-30T01:52:52.601Z,7.43
2022-09-30T01:55:27.707Z,7.43
2022-09-30T01:58:10.236Z,7.44
2022-09-30T02:00:42.199Z,7.47
2022-09-30T02:03:16.301Z,7.44
2022-09-30T02:05:57.795Z,7.42
2022-09-30T02:08:46.857Z,7.34
2022-09-30T02:11:18.308Z,7.29
2022-09-30T02:13:56.346Z,7.31
2022-09-30T02:16:28.142Z,7.29
2022-09-30T02:19:02.851Z,7.33
2022-09-30T02:21:34.662Z,7.36
2022-09-30T02:24:07.898Z,7.28
2022-09-30T02:26:41.448Z,7.17
2022-09-30T02:29:16.051Z,7.17
2022-09-30T02:31:44.772Z,7.24
2022-09-30T02:34:24.211Z,7.25
2022-09-30T02:36:57.805Z,7.09
2022-09-30T02:39:53.343Z,7.12
2022-09-30T02:42:28.889Z,7.03
2022-09-30T02:45:01.489Z,7.00
2022-09-30T02:47:46.259Z,7.02
2022-09-30T02:50:32.912Z,6.99
2022-09-30T02:53:18.531Z,7.01
2022-09-30T02:55:56.403Z,6.99
2022-09-30T02:58:27.387Z,7.00
2022-09-30T03:00:54.765Z,7.02
2022-09-30T03:03:30.523Z,6.98
2022-09-30T03:05:57.015Z,6.92
2022-09-30T03:08:23.445Z,6.93
2022-09-30T03:10:51.829Z,6.91
2022-09-30T03:13:30.814Z,6.89
2022-09-30T03:16:18.126Z,6.89
2022-09-30T03:18:57.555Z,6.89
2022-09-30T03:22:01.503Z,6.81
2022-09-30T03:24:27.837Z,6.74
2022-09-30T03:27:00.259Z,6.78
2022-09-30T03:29:34.039Z,6.69
2022-09-30T03:32:30.493Z,6.77
2022-09-30T03:35:27.316Z,6.81
2022-09-30T03:38:00.266Z,6.74
2022-09-30T03:40:45.274Z,6.59
2022-09-30T03:43:34.280Z,6.61
2022-09-30T03:46:21.269Z,6.63
2022-09-30T03:48:52.525Z,6.58
2022-09-30T03:51:20.554Z,6.50
2022-09-30T03:53:47.566Z,6.49
2022-09-30T03:56:14.275Z,6.40
2022-09-30T03:58:44.160Z,6.38
2022-09-30T04:01:20.019Z,6.39
2022-09-30T04:03:46.751Z,6.31
2022-09-30T04:06:14.112Z,6.38
2022-09-30T04:08:40.639Z,6.43
2022-09-30T04:11:07.004Z,6.33
2022-09-30T04:13:33.387Z,6.44
2022-09-30T04:15:59.848Z,6.50
2022-09-30T04:18:26.327Z,6.46
2022-09-30T04:20:52.705Z,6.49
2022-09-30T04:23:19.123Z,6.45
2022-09-30T04:25:52.342Z,6.51
2022-09-30T04:28:18.936Z,6.47
2022-09-30T04:30:45.387Z,6.53
2022-09-30T04:33:12.775Z,6.65
2022-09-30T04:35:39.222Z,6.59
2022-09-30T04:38:07.552Z,6.59
2022-09-30T04:40:38.529Z,6.63
2022-09-30T04:43:06.128Z,6.60
2022-09-30T04:45:32.550Z,6.59
2022-09-30T04:47:58.987Z,6.64
2022-09-30T04:50:25.465Z,6.62
2022-09-30T04:52:51.859Z,6.57
2022-09-30T04:55:18.313Z,6.56
2022-09-30T04:57:45.359Z,6.63
2022-09-30T05:00:12.065Z,6.73
2022-09-30T05:02:38.492Z,6.74
2022-09-30T05:05:05.208Z,6.69
2022-09-30T05:07:32.144Z,6.74
2022-09-30T05:09:58.531Z,6.67
2022-09-30T05:12:26.127Z,6.64
2022-09-30T05:14:52.533Z,6.68
2022-09-30T05:17:18.961Z,6.65
2022-09-30T05:19:45.389Z,6.58
2022-09-30T05:22:13.335Z,6.51
2022-09-30T05:24:39.706Z,6.57
2022-09-30T05:27:06.922Z,6.55
2022-09-30T05:29:33.375Z,6.54
2022-09-30T05:31:59.893Z,6.57
2022-09-30T05:34:26.394Z,6.57
2022-09-30T05:36:53.134Z,6.56
2022-09-30T05:39:19.506Z,6.59
2022-09-30T05:41:45.906Z,6.68
2022-09-30T05:44:12.303Z,6.65
2022-09-30T05:46:38.764Z,6.75
2022-09-30T05:49:05.234Z,6.80
2022-09-30T05:51:32.567Z,6.83
2022-09-30T05:53:58.990Z,6.90
2022-09-30T05:56:25.451Z,6.98
2022-09-30T05:58:51.865Z,6.96
2022-09-30T06:01:18.257Z,7.02
2022-09-30T06:03:46.614Z,7.01
2022-09-30T06:06:14.249Z,7.08
2022-09-30T06:08:41.443Z,7.16
2022-09-30T06:11:13.032Z,7.12
2022-09-30T06:13:41.134Z,7.17
2022-09-30T06:16:08.513Z,7.25
2022-09-30T06:18:34.950Z,7.36
2022-09-30T06:21:03.482Z,7.66
2022-09-30T06:23:31.881Z,7.75
2022-09-30T06:25:58.301Z,7.84
2022-09-30T06:28:24.815Z,7.85
2022-09-30T06:30:51.206Z,8.01
2022-09-30T06:33:17.593Z,8.25
2022-09-30T06:35:44.020Z,8.45
2022-09-30T06:38:10.771Z,8.67
2022-09-30T06:40:37.819Z,9.21
2022-09-30T06:43:05.056Z,9.41
2022-09-30T06:45:33.408Z,9.59
2022-09-30T06:48:01.819Z,9.76
2022-09-30T06:50:29.833Z,10.04
2022-09-30T06:53:00.551Z,10.41
2022-09-30T06:55:28.597Z,10.63
2022-09-30T06:57:56.063Z,10.83
2022-09-30T07:00:23.575Z,10.98
2022-09-30T07:02:50.114Z,11.12
2022-09-30T07:05:17.345Z,11.24
2022-09-30T07:07:44.001Z,11.41
2022-09-30T07:10:10.703Z,11.64
2022-09-30T07:12:37.128Z,11.81
2022-09-30T07:15:03.624Z,11.99
2022-09-30T07:17:30.016Z,12.16
2022-09-30T07:19:56.400Z,12.02
2022-09-30T07:22:31.893Z,12.15
2022-09-30T07:24:59.818Z,12.28
2022-09-30T07:27:27.862Z,12.55
2022-09-30T07:30:08.740Z,12.90
2022-09-30T07:32:35.926Z,12.65
2022-09-30T07:35:02.346Z,12.80
2022-09-30T07:37:32.621Z,13.01
2022-09-30T07:39:59.096Z,12.98
2022-09-30T07:42:26.674Z,13.02
2022-09-30T07:44:53.684Z,12.99
2022-09-30T07:47:20.438Z,13.18
2022-09-30T07:49:47.408Z,13.06
2022-09-30T07:52:14.411Z,13.09
2022-09-30T07:54:46.587Z,13.12
2022-09-30T07:57:16.305Z,13.19
2022-09-30T07:59:42.783Z,13.28
2022-09-30T08:02:15.581Z,13.45
2022-09-30T08:04:44.158Z,13.44
2022-09-30T08:07:12.598Z,13.38
2022-09-30T08:09:39.126Z,13.61
2022-09-30T08:12:05.570Z,13.93
2022-09-30T08:14:32.798Z,14.23
2022-09-30T08:17:00.422Z,14.40
2022-09-30T08:19:29.303Z,14.46
2022-09-30T08:21:56.448Z,14.54
2022-09-30T08:24:24.137Z,14.74
2022-09-30T08:26:51.706Z,14.63
2022-09-30T08:29:20.554Z,14.77
2022-09-30T08:31:52.496Z,14.92
2022-09-30T08:34:19.168Z,14.73
2022-09-30T08:36:46.537Z,14.80
2022-09-30T08:39:13.016Z,14.71
2022-09-30T08:41:39.368Z,14.59
2022-09-30T08:44:21.027Z,14.71
2022-09-30T08:47:14.423Z,14.68
2022-09-30T08:49:57.008Z,14.90
2022-09-30T08:52:48.183Z,14.92
2022-09-30T08:55:23.172Z,14.86
2022-09-30T08:57:51.365Z,14.95
2022-09-30T09:00:18.875Z,15.05
2022-09-30T09:02:54.440Z,15.10
2022-09-30T09:05:39.282Z,15.36
2022-09-30T09:08:27.353Z,15.47
2022-09-30T09:11:15.266Z,15.34
2022-09-30T09:14:01.352Z,15.22
2022-09-30T09:16:45.449Z,14.99
2022-09-30T09:19:17.434Z,15.13
2022-09-30T09:22:02.329Z,15.49
2022-09-30T09:24:46.071Z,15.73
2022-09-30T09:27:36.675Z,15.80
2022-09-30T09:30:15.547Z,15.99
2022-09-30T09:32:51.113Z,16.13
2022-09-30T09:35:42.447Z,16.18
2022-09-30T09:38:35.706Z,16.37
2022-09-30T09:41:46.910Z,16.53
2022-09-30T09:44:30.667Z,16.70
2022-09-30T09:47:15.604Z,16.47
2022-09-30T09:49:49.164Z,16.70
2022-09-30T09:52:54.788Z,16.87
2022-09-30T09:55:22.624Z,17.07
2022-09-30T09:58:05.210Z,17.19
2022-09-30T10:00:46.583Z,17.09
2022-09-30T10:03:18.975Z,17.13
2022-09-30T10:05:59.638Z,17.34
2022-09-30T10:08:26.538Z,17.40
2022-09-30T10:10:56.121Z,17.58
2022-09-30T10:13:24.898Z,17.42
2022-09-30T10:15:55.633Z,17.50
2022-09-30T10:18:32.682Z,17.37
2022-09-30T10:21:02.360Z,17.21
2022-09-30T10:23:35.813Z,17.64
2022-09-30T10:26:14.214Z,17.86
2022-09-30T10:28:56.025Z,17.91
2022-09-30T10:31:31.287Z,18.02
2022-09-30T10:34:28.344Z,18.10
2022-09-30T10:36:56.046Z,18.30
2022-09-30T10:39:37.538Z,18.38
2022-09-30T10:42:10.267Z,18.38
2022-09-30T10:45:06.364Z,18.39
2022-09-30T10:47:36.943Z,18.51
2022-09-30T10:50:10.590Z,18.64
2022-09-30T10:52:58.079Z,18.81
2022-09-30T10:55:33.343Z,18.63
2022-09-30T10:58:25.130Z,18.70
2022-09-30T11:01:03.032Z,18.67
2022-09-30T11:03:40.696Z,18.81
2022-09-30T11:06:13.399Z,18.88
2022-09-30T11:08:49.831Z,18.91
2022-09-30T11:11:21.710Z,19.38
2022-09-30T11:13:56.998Z,19.62
2022-09-30T11:16:26.562Z,19.56
2022-09-30T11:19:16.564Z,19.70
2022-09-30T11:21:49.489Z,19.64
2022-09-30T11:24:32.544Z,19.82
2022-09-30T11:27:23.657Z,19.72
2022-09-30T11:30:03.439Z,19.56
2022-09-30T11:32:49.136Z,19.86
2022-09-30T11:35:28.022Z,19.91
2022-09-30T11:38:16.700Z,19.93
2022-09-30T11:40:49.124Z,20.27
2022-09-30T11:43:25.357Z,20.30
2022-09-30T11:45:54.334Z,20.34
2022-09-30T11:48:42.252Z,20.32
2022-09-30T11:51:33.372Z,20.39
2022-09-30T11:54:16.367Z,20.21
2022-09-30T11:56:45.718Z,19.90
2022-09-30T11:59:19.911Z,20.31
2022-09-30T12:01:49.984Z,20.43
2022-09-30T12:04:29.307Z,20.45
2022-09-30T12:07:06.326Z,20.62
2022-09-30T12:09:40.255Z,20.64
2022-09-30T12:12:16.090Z,20.71
2022-09-30T12:14:51.768Z,20.77
2022-09-30T12:17:34.277Z,20.78
2022-09-30T12:20:34.727Z,20.84
2022-09-30T12:23:29.023Z,20.78
2022-09-30T12:25:57.569Z,20.73
2022-09-30T12:28:52.515Z,20.80
2022-09-30T12:31:51.819Z,20.75
2022-09-30T12:34:36.964Z,20.54
2022-09-30T12:37:09.284Z,20.85
2022-09-30T12:39:58.947Z,20.99
2022-09-30T12:42:42.163Z,20.72
2022-09-30T12:45:33.756Z,20.94
2022-09-30T12:48:06.618Z,21.30
2022-09-30T12:50:44.415Z,21.38
2022-09-30T12:53:26.005Z,21.10
2022-09-30T12:55:53.373Z,21.15
2022-09-30T12:58:30.627Z,21.08
2022-09-30T13:01:06.246Z,21.37
2022-09-30T13:04:09.380Z,21.57
2022-09-30T13:06:44.870Z,21.54
2022-09-30T13:09:11.188Z,21.18
2022-09-30T13:11:40.564Z,21.36
2022-09-30T13:14:30.950Z,21.39
2022-09-30T13:17:07.483Z,21.44
2022-09-30T13:19:37.336Z,21.46
2022-09-30T13:22:39.636Z,21.26
2022-09-30T13:25:15.182Z,21.41
2022-09-30T13:28:08.077Z,21.46
2022-09-30T13:30:36.306Z,21.22
2022-09-30T13:33:02.613Z,21.17
2022-09-30T13:35:35.195Z,21.01
2022-09-30T13:38:13.652Z,20.74
2022-09-30T13:41:01.772Z,20.71
2022-09-30T13:44:05.965Z,20.33
2022-09-30T13:46:39.835Z,20.29
2022-09-30T13:49:17.758Z,19.97
2022-09-30T13:51:44.859Z,20.03
2022-09-30T13:54:18.179Z,20.20
2022-09-30T13:56:45.089Z,20.53
2022-09-30T13:59:31.795Z,20.71
2022-09-30T14:02:28.117Z,20.76
2022-09-30T14:05:15.502Z,20.53
2022-09-30T14:08:04.791Z,20.44
2022-09-30T14:11:00.410Z,20.42
2022-09-30T14:13:27.698Z,20.41
2022-09-30T14:16:31.927Z,20.41
2022-09-30T14:19:23.747Z,20.37
2022-09-30T14:21:56.684Z,20.39
2022-09-30T14:24:26.243Z,20.52
2022-09-30T14:27:07.567Z,20.70
2022-09-30T14:29:48.078Z,20.68
2022-09-30T14:32:19.942Z,20.63
2022-09-30T14:34:49.563Z,20.51
2022-09-30T14:37:25.027Z,20.37
2022-09-30T14:39:51.430Z,20.16
2022-09-30T14:42:30.163Z,20.07
2022-09-30T14:45:04.528Z,20.24
2022-09-30T14:47:39.245Z,20.25
2022-09-30T14:50:19.595Z,20.38
2022-09-30T14:52:48.584Z,20.21
2022-09-30T14:55:34.190Z,20.21
2022-09-30T14:58:28.602Z,20.16
2022-09-30T15:01:17.517Z,20.37
2022-09-30T15:03:53.368Z,20.49
2022-09-30T15:06:22.759Z,20.42
2022-09-30T15:08:50.696Z,20.45
2022-09-30T15:11:19.468Z,20.29
2022-09-30T15:13:46.003Z,20.11
2022-09-30T15:16:30.724Z,19.98
2022-09-30T15:18:58.470Z,20.00
2022-09-30T15:21:28.091Z,19.96
2022-09-30T15:24:00.658Z,19.93
2022-09-30T15:26:27.712Z,19.83
2022-09-30T15:28:54.753Z,19.73
2022-09-30T15:31:25.926Z,19.68
2022-09-30T15:34:19.190Z,19.60
2022-09-30T15:36:56.651Z,19.49
2022-09-30T15:39:54.323Z,19.33
2022-09-30T15:42:44.329Z,19.11
2022-09-30T15:45:16.525Z,19.13
2022-09-30T15:47:55.614Z,19.01
2022-09-30T15:50:40.391Z,19.05
2022-09-30T15:53:15.223Z,18.92
2022-09-30T15:55:44.485Z,18.83
2022-09-30T15:58:26.046Z,18.84
2022-09-30T16:00:54.917Z,18.79
2022-09-30T16:03:30.140Z,18.71
2022-09-30T16:06:12.118Z,18.55
2022-09-30T16:08:43.304Z,18.59
2022-09-30T16:11:17.722Z,18.46
2022-09-30T16:13:45.830Z,18.48
2022-09-30T16:16:24.886Z,18.40
2022-09-30T16:18:53.491Z,18.42
2022-09-30T16:21:43.880Z,18.29
2022-09-30T16:24:22.578Z,18.18
2022-09-30T16:26:56.624Z,18.16
2022-09-30T16:29:25.694Z,18.03
2022-09-30T16:31:55.461Z,18.05
2022-09-30T16:34:24.418Z,17.92
2022-09-30T16:36:52.746Z,17.90
2022-09-30T16:39:19.699Z,17.66
2022-09-30T16:41:46.723Z,17.51
2022-09-30T16:44:13.799Z,17.28
2022-09-30T16:46:40.201Z,17.19
2022-09-30T16:49:14.434Z,17.01
2022-09-30T16:51:40.872Z,16.78
2022-09-30T16:54:07.256Z,16.60
2022-09-30T16:56:35.117Z,16.52
2022-09-30T16:59:02.366Z,16.40
2022-09-30T17:01:29.569Z,16.23
2022-09-30T17:03:57.383Z,16.01
2022-09-30T17:06:32.029Z,15.85
2022-09-30T17:09:02.437Z,15.78
2022-09-30T17:11:31.278Z,15.70
2022-09-30T17:13:57.904Z,15.76
2022-09-30T17:16:24.940Z,15.52
2022-09-30T17:18:52.216Z,15.39
2022-09-30T17:21:20.477Z,15.31
2022-09-30T17:23:47.078Z,15.02
2022-09-30T17:26:13.500Z,15.08
2022-09-30T17:28:40.025Z,14.95
2022-09-30T17:31:08.515Z,14.76
2022-09-30T17:33:37.842Z,14.60
2022-09-30T17:36:06.746Z,14.61
2022-09-30T17:38:34.365Z,14.60
2022-09-30T17:41:20.546Z,14.56
2022-09-30T17:43:47.095Z,14.41
2022-09-30T17:46:23.388Z,14.31
2022-09-30T17:48:54.291Z,14.12
2022-09-30T17:51:20.762Z,13.95
2022-09-30T17:53:48.162Z,13.96
2022-09-30T17:56:20.166Z,13.81
2022-09-30T17:58:49.117Z,13.81
2022-09-30T18:01:17.495Z,13.76
2022-09-30T18:03:45.057Z,13.80
2022-09-30T18:06:11.529Z,13.77
2022-09-30T18:08:38.237Z,13.68
2022-09-30T18:11:04.654Z,13.54
2022-09-30T18:13:31.104Z,13.48
2022-09-30T18:16:02.185Z,13.31
2022-09-30T18:18:29.438Z,13.32
2022-09-30T18:20:56.049Z,13.25
2022-09-30T18:23:22.534Z,13.20
2022-09-30T18:25:49.847Z,13.13
2022-09-30T18:28:16.800Z,13.10
2022-09-30T18:30:43.773Z,13.08
2022-09-30T18:33:10.949Z,13.08
2022-09-30T18:35:39.425Z,12.84
2022-09-30T18:38:06.841Z,12.80
2022-09-30T18:40:33.784Z,12.79
2022-09-30T18:43:02.791Z,12.68
2022-09-30T18:45:31.254Z,12.57
2022-09-30T18:47:59.815Z,12.65
2022-09-30T18:50:28.355Z,12.64
2022-09-30T18:52:55.906Z,12.60
2022-09-30T18:55:22.610Z,12.46
2022-09-30T18:57:50.292Z,12.41
2022-09-30T19:00:17.699Z,12.43
2022-09-30T19:02:46.988Z,12.38
2022-09-30T19:05:14.864Z,12.33
2022-09-30T19:07:41.246Z,12.22
2022-09-30T19:10:08.811Z,12.23
2022-09-30T19:12:36.513Z,12.27
2022-09-30T19:15:08.431Z,12.21
2022-09-30T19:17:37.006Z,12.14
2022-09-30T19:20:05.231Z,12.12
2022-09-30T19:22:36.985Z,12.10
2022-09-30T19:25:10.519Z,12.01
2022-09-30T19:27:38.352Z,11.97
2022-09-30T19:30:06.406Z,11.97
2022-09-30T19:32:35.896Z,11.96
2022-09-30T19:35:06.679Z,12.04
2022-09-30T19:37:33.495Z,11.95
2022-09-30T19:40:07.463Z,11.85
2022-09-30T19:42:39.304Z,11.78
2022-09-30T19:45:07.130Z,11.65
2022-09-30T19:47:34.609Z,11.61
2022-09-30T19:50:01.084Z,11.55
2022-09-30T19:52:27.636Z,11.58
2022-09-30T19:54:58.201Z,11.66
2022-09-30T19:57:25.836Z,11.69
2022-09-30T19:59:53.263Z,11.55
2022-09-30T20:02:21.527Z,11.41
2022-09-30T20:04:48.213Z,11.36
2022-09-30T20:07:14.948Z,11.28
2022-09-30T20:09:42.674Z,11.23
2022-09-30T20:12:10.715Z,11.25
2022-09-30T20:14:55.911Z,11.29
2022-09-30T20:17:23.309Z,11.13
2022-09-30T20:20:09.758Z,11.15
2022-09-30T20:22:36.509Z,11.11
2022-09-30T20:25:03.716Z,11.14
2022-09-30T20:27:30.992Z,11.17
2022-09-30T20:29:57.381Z,11.05
2022-09-30T20:32:23.983Z,10.97
2022-09-30T20:34:51.498Z,10.96
2022-09-30T20:37:17.898Z,10.91
2022-09-30T20:39:44.591Z,10.80
2022-09-30T20:42:10.987Z,10.81
2022-09-30T20:44:37.883Z,10.77
2022-09-30T20:47:04.386Z,10.70
2022-09-30T20:49:30.815Z,10.63
2022-09-30T20:51:57.194Z,10.61
2022-09-30T20:54:23.650Z,10.66
2022-09-30T20:57:06.669Z,10.65
2022-09-30T20:59:34.134Z,10.61
2022-09-30T21:02:00.716Z,10.57
2022-09-30T21:04:27.201Z,10.52
2022-09-30T21:06:53.627Z,10.60
2022-09-30T21:09:20.124Z,10.62
2022-09-30T21:11:46.525Z,10.54
2022-09-30T21:14:17.428Z,10.42
2022-09-30T21:16:43.933Z,10.36
2022-09-30T21:19:10.441Z,10.37
2022-09-30T21:21:36.849Z,10.39
2022-09-30T21:24:03.271Z,10.40
2022-09-30T21:26:29.967Z,10.31
2022-09-30T21:28:56.356Z,10.24
2022-09-30T21:31:26.725Z,10.23
2022-09-30T21:33:56.285Z,10.18
2022-09-30T21:36:22.847Z,10.17
2022-09-30T21:38:49.869Z,10.13
2022-09-30T21:41:17.451Z,10.12
2022-09-30T21:43:44.301Z,10.10
2022-09-30T21:46:12.450Z,10.13
2022-09-30T21:48:39.452Z,10.11
2022-09-30T21:51:07.127Z,10.02
2022-09-30T21:53:33.936Z,10.01
2022-09-30T21:56:03.162Z,10.04
2022-09-30T21:58:31.681Z,10.09
2022-09-30T22:01:00.593Z,10.01
2022-09-30T22:03:30.714Z,9.94
2022-09-30T22:05:58.259Z,9.98
2022-09-30T22:08:25.038Z,9.91
2022-09-30T22:10:51.442Z,9.88
2022-09-30T22:13:18.702Z,9.92
2022-09-30T22:15:47.011Z,9.95
2022-09-30T22:18:18.405Z,9.89
2022-09-30T22:20:46.603Z,9.83
2022-09-30T22:23:14.861Z,9.85
2022-09-30T22:25:41.416Z,9.79
2022-09-30T22:28:07.851Z,9.76
2022-09-30T22:30:35.192Z,9.77
2022-09-30T22:33:19.866Z,9.75
2022-09-30T22:36:05.100Z,9.73
2022-09-30T22:38:31.483Z,9.71
2022-09-30T22:40:59.394Z,9.68
2022-09-30T22:43:26.895Z,9.70
2022-09-30T22:46:08.068Z,9.70
2022-09-30T22:48:35.158Z,9.75
2022-09-30T22:51:01.851Z,9.73
2022-09-30T22:53:28.789Z,9.66
2022-09-30T22:55:55.256Z,9.63
2022-09-30T22:58:25.889Z,9.62
2022-09-30T23:00:57.482Z,9.63
2022-09-30T23:03:25.473Z,9.64
2022-09-30T23:05:53.142Z,9.62
2022-09-30T23:08:19.539Z,9.62
2022-09-30T23:10:49.888Z,9.62
2022-09-30T23:13:19.916Z,9.58
2022-09-30T23:15:47.765Z,9.61
2022-09-30T23:18:16.927Z,9.55
2022-09-30T23:20:52.687Z,9.50
2022-09-30T23:23:19.062Z,9.46
2022-09-30T23:25:45.432Z,9.45
2022-09-30T23:28:11.887Z,9.47
2022-09-30T23:30:38.349Z,9.51
2022-09-30T23:33:05.163Z,9.45
2022-09-30T23:35:31.543Z,9.46
2022-09-30T23:37:57.913Z,9.44
2022-09-30T23:40:24.296Z,9.39
2022-09-30T23:42:51.250Z,9.34
2022-09-30T23:45:17.623Z,9.38
2022-09-30T23:47:47.396Z,9.35
2022-09-30T23:50:13.828Z,9.38
2022-09-30T23:52:40.213Z,9.41
2022-09-30T23:55:07.181Z,9.42
2022-09-30T23:57:33.595Z,9.42
2022-09-30T23:59:59.977Z,9.43
